Terminal Aerodrome Forecast
Issued by NWS

Home | Current Version | Previous Version | Text Only | Print | Product List | Glossary On
Versions: 1 2 3 4 5 6 7 8 9 10 11 12 13 14 15 16 17
000
FTUS46 KPDT 291700
TAFPSC
TAF
KPSC 291735Z 2918/3018 34006KT P6SM OVC014
     FM292100 VRB05KT P6SM OVC018
     FM300000 VRB05KT P6SM SCT015 BKN022
     FM300600 33004KT 6SM BR SCT009 OVC015=

USA.gov is the U.S. government's official web portal to all federal, state and local government web resources and services.